sensor_id;sensor_type;location;lat;lon;timestamp;P1;durP1;ratioP1;P2;durP2;ratioP2
7729;SDS011;3908;52.310;7.230;2023-06-26T00:00:14;452.75;;;419.73;;
7729;SDS011;3908;52.310;7.230;2023-06-26T00:03:01;447.00;;;415.67;;
7729;SDS011;3908;52.310;7.230;2023-06-26T00:05:48;607.80;;;564.33;;
7729;SDS011;3908;52.310;7.230;2023-06-26T00:08:36;605.58;;;561.20;;
7729;SDS011;3908;52.310;7.230;2023-06-26T00:11:22;609.10;;;564.80;;
7729;SDS011;3908;52.310;7.230;2023-06-26T00:14:09;634.08;;;588.20;;
7729;SDS011;3908;52.310;7.230;2023-06-26T00:16:57;674.88;;;626.25;;
7729;SDS011;3908;52.310;7.230;2023-06-26T00:19:44;672.97;;;624.25;;
7729;SDS011;3908;52.310;7.230;2023-06-26T00:22:31;661.58;;;613.80;;
7729;SDS011;3908;52.310;7.230;2023-06-26T00:25:18;650.72;;;605.08;;
7729;SDS011;3908;52.310;7.230;2023-06-26T00:28:05;652.90;;;607.20;;
7729;SDS011;3908;52.310;7.230;2023-06-26T00:30:52;611.38;;;569.45;;
7729;SDS011;3908;52.310;7.230;2023-06-26T00:33:40;618.10;;;575.75;;
7729;SDS011;3908;52.310;7.230;2023-06-26T00:36:26;570.33;;;530.60;;
7729;SDS011;3908;52.310;7.230;2023-06-26T00:39:13;557.63;;;518.42;;
7729;SDS011;3908;52.310;7.230;2023-06-26T00:42:00;539.97;;;501.65;;
7729;SDS011;3908;52.310;7.230;2023-06-26T00:44:47;579.45;;;538.30;;
7729;SDS011;3908;52.310;7.230;2023-06-26T00:47:34;581.38;;;540.78;;
7729;SDS011;3908;52.310;7.230;2023-06-26T00:50:22;548.92;;;510.58;;
7729;SDS011;3908;52.310;7.230;2023-06-26T00:53:09;518.95;;;480.80;;
7729;SDS011;3908;52.310;7.230;2023-06-26T00:55:56;512.08;;;475.73;;
7729;SDS011;3908;52.310;7.230;2023-06-26T00:58:43;483.77;;;449.40;;
7729;SDS011;3908;52.310;7.230;2023-06-26T01:01:30;459.90;;;428.48;;
7729;SDS011;3908;52.310;7.230;2023-06-26T01:04:16;442.10;;;411.95;;
7729;SDS011;3908;52.310;7.230;2023-06-26T01:07:05;450.60;;;419.10;;
7729;SDS011;3908;52.310;7.230;2023-06-26T01:09:52;465.55;;;431.70;;
7729;SDS011;3908;52.310;7.230;2023-06-26T01:12:39;485.55;;;450.15;;
7729;SDS011;3908;52.310;7.230;2023-06-26T01:15:26;492.40;;;456.40;;
7729;SDS011;3908;52.310;7.230;2023-06-26T01:18:13;519.90;;;481.70;;
7729;SDS011;3908;52.310;7.230;2023-06-26T01:21:00;529.85;;;490.05;;
7729;SDS011;3908;52.310;7.230;2023-06-26T01:23:58;559.50;;;516.83;;
7729;SDS011;3908;52.310;7.230;2023-06-26T01:26:53;570.13;;;527.67;;
7729;SDS011;3908;52.310;7.230;2023-06-26T01:29:40;559.80;;;518.65;;
7729;SDS011;3908;52.310;7.230;2023-06-26T01:32:27;554.45;;;513.50;;
7729;SDS011;3908;52.310;7.230;2023-06-26T01:35:14;552.97;;;512.85;;
7729;SDS011;3908;52.310;7.230;2023-06-26T01:38:11;499.92;;;464.45;;
7729;SDS011;3908;52.310;7.230;2023-06-26T01:40:58;499.98;;;464.65;;
7729;SDS011;3908;52.310;7.230;2023-06-26T01:43:50;451.50;;;418.55;;
7729;SDS011;3908;52.310;7.230;2023-06-26T01:46:44;425.23;;;393.48;;
7729;SDS011;3908;52.310;7.230;2023-06-26T01:49:46;433.77;;;400.83;;
7729;SDS011;3908;52.310;7.230;2023-06-26T01:52:35;442.90;;;410.90;;
7729;SDS011;3908;52.310;7.230;2023-06-26T01:55:29;484.75;;;448.38;;
7729;SDS011;3908;52.310;7.230;2023-06-26T01:58:18;495.83;;;459.48;;
7729;SDS011;3908;52.310;7.230;2023-06-26T02:01:07;527.88;;;489.55;;
7729;SDS011;3908;52.310;7.230;2023-06-26T02:03:54;527.63;;;489.45;;
7729;SDS011;3908;52.310;7.230;2023-06-26T02:06:41;522.50;;;484.17;;
7729;SDS011;3908;52.310;7.230;2023-06-26T02:09:28;537.22;;;498.48;;
7729;SDS011;3908;52.310;7.230;2023-06-26T02:12:14;556.00;;;516.10;;
7729;SDS011;3908;52.310;7.230;2023-06-26T02:15:01;578.35;;;536.13;;
7729;SDS011;3908;52.310;7.230;2023-06-26T02:17:49;537.97;;;498.73;;
7729;SDS011;3908;52.310;7.230;2023-06-26T02:20:36;533.08;;;493.90;;
7729;SDS011;3908;52.310;7.230;2023-06-26T02:23:23;556.72;;;515.63;;
7729;SDS011;3908;52.310;7.230;2023-06-26T02:26:10;524.40;;;485.50;;
7729;SDS011;3908;52.310;7.230;2023-06-26T02:28:56;488.77;;;452.67;;
7729;SDS011;3908;52.310;7.230;2023-06-26T02:31:43;467.13;;;431.90;;
7729;SDS011;3908;52.310;7.230;2023-06-26T02:34:34;514.95;;;475.05;;
7729;SDS011;3908;52.310;7.230;2023-06-26T02:37:21;506.38;;;467.55;;
7729;SDS011;3908;52.310;7.230;2023-06-26T02:40:08;528.25;;;489.45;;
7729;SDS011;3908;52.310;7.230;2023-06-26T02:42:55;517.33;;;479.17;;
7729;SDS011;3908;52.310;7.230;2023-06-26T02:45:42;510.60;;;472.08;;
7729;SDS011;3908;52.310;7.230;2023-06-26T02:48:29;494.52;;;457.40;;
7729;SDS011;3908;52.310;7.230;2023-06-26T02:51:17;428.63;;;395.05;;
7729;SDS011;3908;52.310;7.230;2023-06-26T02:54:04;382.77;;;354.02;;
7729;SDS011;3908;52.310;7.230;2023-06-26T02:56:50;363.15;;;336.50;;
7729;SDS011;3908;52.310;7.230;2023-06-26T02:59:37;328.98;;;306.23;;
7729;SDS011;3908;52.310;7.230;2023-06-26T03:02:24;355.17;;;332.15;;
7729;SDS011;3908;52.310;7.230;2023-06-26T03:05:11;423.65;;;396.48;;
7729;SDS011;3908;52.310;7.230;2023-06-26T03:08:00;343.30;;;320.13;;
7729;SDS011;3908;52.310;7.230;2023-06-26T03:10:46;356.07;;;332.43;;
7729;SDS011;3908;52.310;7.230;2023-06-26T03:13:33;377.13;;;351.70;;
7729;SDS011;3908;52.310;7.230;2023-06-26T03:16:20;320.38;;;300.38;;
7729;SDS011;3908;52.310;7.230;2023-06-26T03:19:07;337.17;;;315.27;;
7729;SDS011;3908;52.310;7.230;2023-06-26T03:21:54;329.40;;;306.92;;
7729;SDS011;3908;52.310;7.230;2023-06-26T03:24:42;342.50;;;319.77;;
7729;SDS011;3908;52.310;7.230;2023-06-26T03:27:30;284.58;;;266.52;;
7729;SDS011;3908;52.310;7.230;2023-06-26T03:30:17;261.38;;;245.60;;
7729;SDS011;3908;52.310;7.230;2023-06-26T03:33:03;255.30;;;240.23;;
7729;SDS011;3908;52.310;7.230;2023-06-26T03:35:50;252.75;;;239.38;;
7729;SDS011;3908;52.310;7.230;2023-06-26T03:38:37;227.00;;;214.38;;
7729;SDS011;3908;52.310;7.230;2023-06-26T03:41:25;221.10;;;209.63;;
7729;SDS011;3908;52.310;7.230;2023-06-26T03:44:12;211.55;;;199.60;;
7729;SDS011;3908;52.310;7.230;2023-06-26T03:46:59;336.60;;;317.38;;
7729;SDS011;3908;52.310;7.230;2023-06-26T03:49:45;330.48;;;309.33;;
7729;SDS011;3908;52.310;7.230;2023-06-26T03:52:32;186.70;;;175.82;;
7729;SDS011;3908;52.310;7.230;2023-06-26T03:55:19;217.90;;;205.15;;
7729;SDS011;3908;52.310;7.230;2023-06-26T03:58:09;320.95;;;303.20;;
7729;SDS011;3908;52.310;7.230;2023-06-26T04:00:56;422.33;;;395.60;;
7729;SDS011;3908;52.310;7.230;2023-06-26T04:03:43;527.97;;;491.05;;
7729;SDS011;3908;52.310;7.230;2023-06-26T04:06:30;447.23;;;411.85;;
7729;SDS011;3908;52.310;7.230;2023-06-26T04:09:17;395.50;;;366.80;;
7729;SDS011;3908;52.310;7.230;2023-06-26T04:12:05;378.33;;;351.33;;
7729;SDS011;3908;52.310;7.230;2023-06-26T04:14:53;428.27;;;398.90;;
7729;SDS011;3908;52.310;7.230;2023-06-26T04:17:40;462.77;;;433.33;;
7729;SDS011;3908;52.310;7.230;2023-06-26T04:20:27;375.42;;;351.38;;
7729;SDS011;3908;52.310;7.230;2023-06-26T04:23:14;447.40;;;417.95;;
7729;SDS011;3908;52.310;7.230;2023-06-26T04:26:00;509.52;;;475.83;;
7729;SDS011;3908;52.310;7.230;2023-06-26T04:28:47;516.65;;;482.92;;
7729;SDS011;3908;52.310;7.230;2023-06-26T04:31:36;453.63;;;425.92;;
7729;SDS011;3908;52.310;7.230;2023-06-26T04:34:22;398.73;;;374.38;;
7729;SDS011;3908;52.310;7.230;2023-06-26T04:37:09;387.70;;;363.75;;
7729;SDS011;3908;52.310;7.230;2023-06-26T04:39:56;405.08;;;380.15;;
7729;SDS011;3908;52.310;7.230;2023-06-26T04:42:43;417.00;;;391.38;;
7729;SDS011;3908;52.310;7.230;2023-06-26T04:45:29;382.48;;;358.60;;
7729;SDS011;3908;52.310;7.230;2023-06-26T04:48:18;409.98;;;385.30;;
7729;SDS011;3908;52.310;7.230;2023-06-26T04:51:04;373.50;;;349.77;;
7729;SDS011;3908;52.310;7.230;2023-06-26T04:53:51;403.33;;;374.50;;
7729;SDS011;3908;52.310;7.230;2023-06-26T04:56:38;423.90;;;391.63;;
7729;SDS011;3908;52.310;7.230;2023-06-26T04:59:25;426.60;;;392.55;;
7729;SDS011;3908;52.310;7.230;2023-06-26T05:02:12;472.58;;;433.85;;
7729;SDS011;3908;52.310;7.230;2023-06-26T05:05:01;518.85;;;477.25;;
7729;SDS011;3908;52.310;7.230;2023-06-26T05:07:48;549.85;;;506.60;;
7729;SDS011;3908;52.310;7.230;2023-06-26T05:10:35;615.88;;;569.95;;
7729;SDS011;3908;52.310;7.230;2023-06-26T05:13:22;659.22;;;611.92;;
7729;SDS011;3908;52.310;7.230;2023-06-26T05:16:08;592.50;;;550.60;;
7729;SDS011;3908;52.310;7.230;2023-06-26T05:18:55;475.00;;;441.40;;
7729;SDS011;3908;52.310;7.230;2023-06-26T05:21:43;441.70;;;409.33;;
7729;SDS011;3908;52.310;7.230;2023-06-26T05:24:31;496.80;;;457.95;;
7729;SDS011;3908;52.310;7.230;2023-06-26T05:27:18;479.55;;;441.52;;
7729;SDS011;3908;52.310;7.230;2023-06-26T05:30:07;458.15;;;423.27;;
7729;SDS011;3908;52.310;7.230;2023-06-26T05:32:54;412.13;;;380.95;;
7729;SDS011;3908;52.310;7.230;2023-06-26T05:35:41;475.85;;;441.55;;
7729;SDS011;3908;52.310;7.230;2023-06-26T05:38:30;345.23;;;324.92;;
7729;SDS011;3908;52.310;7.230;2023-06-26T05:41:17;404.65;;;378.65;;
7729;SDS011;3908;52.310;7.230;2023-06-26T05:44:04;269.05;;;252.40;;
7729;SDS011;3908;52.310;7.230;2023-06-26T05:46:51;335.35;;;314.27;;
7729;SDS011;3908;52.310;7.230;2023-06-26T05:49:38;318.15;;;298.88;;
7729;SDS011;3908;52.310;7.230;2023-06-26T05:52:25;336.50;;;317.33;;
7729;SDS011;3908;52.310;7.230;2023-06-26T05:55:14;404.60;;;379.80;;
7729;SDS011;3908;52.310;7.230;2023-06-26T05:58:01;409.90;;;384.98;;
7729;SDS011;3908;52.310;7.230;2023-06-26T06:00:48;427.30;;;400.60;;
7729;SDS011;3908;52.310;7.230;2023-06-26T06:03:35;389.58;;;363.20;;
7729;SDS011;3908;52.310;7.230;2023-06-26T06:06:21;413.90;;;385.50;;
7729;SDS011;3908;52.310;7.230;2023-06-26T06:09:08;455.95;;;427.50;;
7729;SDS011;3908;52.310;7.230;2023-06-26T06:11:56;447.90;;;419.30;;
7729;SDS011;3908;52.310;7.230;2023-06-26T06:14:43;448.58;;;419.45;;
7729;SDS011;3908;52.310;7.230;2023-06-26T06:17:30;456.75;;;427.75;;
7729;SDS011;3908;52.310;7.230;2023-06-26T06:20:17;452.58;;;423.70;;
7729;SDS011;3908;52.310;7.230;2023-06-26T06:23:05;458.05;;;426.27;;
7729;SDS011;3908;52.310;7.230;2023-06-26T06:25:51;393.77;;;364.88;;
7729;SDS011;3908;52.310;7.230;2023-06-26T06:28:39;300.30;;;280.42;;
7729;SDS011;3908;52.310;7.230;2023-06-26T06:31:26;300.50;;;280.95;;
7729;SDS011;3908;52.310;7.230;2023-06-26T06:34:13;324.20;;;305.27;;
7729;SDS011;3908;52.310;7.230;2023-06-26T06:37:00;375.48;;;351.90;;
7729;SDS011;3908;52.310;7.230;2023-06-26T06:39:47;460.75;;;429.90;;
7729;SDS011;3908;52.310;7.230;2023-06-26T06:42:34;464.67;;;431.80;;
7729;SDS011;3908;52.310;7.230;2023-06-26T06:45:22;463.25;;;431.40;;
7729;SDS011;3908;52.310;7.230;2023-06-26T06:48:09;507.52;;;472.50;;
7729;SDS011;3908;52.310;7.230;2023-06-26T06:50:56;545.20;;;508.77;;
7729;SDS011;3908;52.310;7.230;2023-06-26T06:53:42;491.42;;;461.52;;
7729;SDS011;3908;52.310;7.230;2023-06-26T06:56:29;274.27;;;256.92;;
7729;SDS011;3908;52.310;7.230;2023-06-26T06:59:16;498.55;;;466.88;;
7729;SDS011;3908;52.310;7.230;2023-06-26T07:02:05;451.42;;;424.08;;
7729;SDS011;3908;52.310;7.230;2023-06-26T07:04:52;255.02;;;237.57;;
7729;SDS011;3908;52.310;7.230;2023-06-26T07:07:38;290.27;;;269.52;;
7729;SDS011;3908;52.310;7.230;2023-06-26T07:10:25;290.60;;;271.98;;
7729;SDS011;3908;52.310;7.230;2023-06-26T07:13:12;292.60;;;272.63;;
7729;SDS011;3908;52.310;7.230;2023-06-26T07:15:59;322.42;;;300.45;;
7729;SDS011;3908;52.310;7.230;2023-06-26T07:18:47;320.92;;;300.48;;
7729;SDS011;3908;52.310;7.230;2023-06-26T07:21:35;356.17;;;332.88;;
7729;SDS011;3908;52.310;7.230;2023-06-26T07:24:22;357.90;;;334.45;;
7729;SDS011;3908;52.310;7.230;2023-06-26T07:27:09;292.38;;;274.98;;
7729;SDS011;3908;52.310;7.230;2023-06-26T07:29:55;313.27;;;294.75;;
7729;SDS011;3908;52.310;7.230;2023-06-26T07:32:44;395.08;;;372.27;;
7729;SDS011;3908;52.310;7.230;2023-06-26T07:35:32;409.42;;;383.25;;
7729;SDS011;3908;52.310;7.230;2023-06-26T07:38:19;419.20;;;392.38;;
7729;SDS011;3908;52.310;7.230;2023-06-26T07:41:06;364.77;;;341.67;;
7729;SDS011;3908;52.310;7.230;2023-06-26T07:43:53;337.30;;;315.83;;
7729;SDS011;3908;52.310;7.230;2023-06-26T07:46:39;445.35;;;411.85;;
7729;SDS011;3908;52.310;7.230;2023-06-26T07:49:26;469.15;;;433.27;;
7729;SDS011;3908;52.310;7.230;2023-06-26T07:52:14;505.42;;;466.30;;
7729;SDS011;3908;52.310;7.230;2023-06-26T07:55:01;427.30;;;392.80;;
7729;SDS011;3908;52.310;7.230;2023-06-26T07:57:49;561.97;;;519.15;;
7729;SDS011;3908;52.310;7.230;2023-06-26T08:00:37;576.38;;;533.75;;
7729;SDS011;3908;52.310;7.230;2023-06-26T08:03:24;425.60;;;397.23;;
7729;SDS011;3908;52.310;7.230;2023-06-26T08:06:11;404.77;;;377.35;;
7729;SDS011;3908;52.310;7.230;2023-06-26T08:08:59;507.00;;;472.40;;
7729;SDS011;3908;52.310;7.230;2023-06-26T08:11:46;386.75;;;361.48;;
7729;SDS011;3908;52.310;7.230;2023-06-26T08:14:33;414.30;;;387.15;;
7729;SDS011;3908;52.310;7.230;2023-06-26T08:17:19;383.80;;;360.33;;
7729;SDS011;3908;52.310;7.230;2023-06-26T08:20:07;503.05;;;469.73;;
7729;SDS011;3908;52.310;7.230;2023-06-26T08:22:54;552.90;;;514.40;;
7729;SDS011;3908;52.310;7.230;2023-06-26T08:25:42;566.28;;;524.65;;
7729;SDS011;3908;52.310;7.230;2023-06-26T08:28:29;425.42;;;393.48;;
7729;SDS011;3908;52.310;7.230;2023-06-26T08:31:16;429.80;;;397.70;;
7729;SDS011;3908;52.310;7.230;2023-06-26T08:34:03;606.15;;;561.90;;
7729;SDS011;3908;52.310;7.230;2023-06-26T08:36:50;490.70;;;458.70;;
7729;SDS011;3908;52.310;7.230;2023-06-26T08:39:36;558.95;;;522.78;;
7729;SDS011;3908;52.310;7.230;2023-06-26T08:42:25;521.58;;;485.38;;
7729;SDS011;3908;52.310;7.230;2023-06-26T08:45:11;440.85;;;409.17;;
7729;SDS011;3908;52.310;7.230;2023-06-26T08:47:59;423.45;;;391.73;;
7729;SDS011;3908;52.310;7.230;2023-06-26T08:50:47;185.07;;;172.80;;
7729;SDS011;3908;52.310;7.230;2023-06-26T08:53:36;373.15;;;348.73;;
7729;SDS011;3908;52.310;7.230;2023-06-26T08:56:27;386.42;;;361.10;;
7729;SDS011;3908;52.310;7.230;2023-06-26T08:59:16;334.67;;;312.15;;
7729;SDS011;3908;52.310;7.230;2023-06-26T09:02:03;192.25;;;179.98;;
7729;SDS011;3908;52.310;7.230;2023-06-26T09:04:50;222.35;;;208.13;;
7729;SDS011;3908;52.310;7.230;2023-06-26T09:07:37;321.05;;;300.15;;
7729;SDS011;3908;52.310;7.230;2023-06-26T09:10:24;285.73;;;267.73;;
7729;SDS011;3908;52.310;7.230;2023-06-26T09:13:10;601.22;;;560.22;;
7729;SDS011;3908;52.310;7.230;2023-06-26T09:15:59;541.28;;;503.88;;
7729;SDS011;3908;52.310;7.230;2023-06-26T09:18:45;239.55;;;223.75;;
7729;SDS011;3908;52.310;7.230;2023-06-26T09:21:32;433.55;;;403.75;;
7729;SDS011;3908;52.310;7.230;2023-06-26T09:24:19;532.17;;;495.98;;
7729;SDS011;3908;52.310;7.230;2023-06-26T09:27:06;526.42;;;490.65;;
7729;SDS011;3908;52.310;7.230;2023-06-26T09:29:53;281.15;;;263.38;;
7729;SDS011;3908;52.310;7.230;2023-06-26T09:32:42;342.00;;;321.67;;
7729;SDS011;3908;52.310;7.230;2023-06-26T09:35:29;433.75;;;406.35;;
7729;SDS011;3908;52.310;7.230;2023-06-26T09:38:17;522.08;;;483.95;;
7729;SDS011;3908;52.310;7.230;2023-06-26T09:41:03;443.13;;;411.38;;
7729;SDS011;3908;52.310;7.230;2023-06-26T09:43:50;275.13;;;257.17;;
7729;SDS011;3908;52.310;7.230;2023-06-26T09:46:37;299.35;;;280.55;;
7729;SDS011;3908;52.310;7.230;2023-06-26T09:49:26;585.08;;;545.78;;
7729;SDS011;3908;52.310;7.230;2023-06-26T09:52:13;636.80;;;593.58;;
7729;SDS011;3908;52.310;7.230;2023-06-26T09:55:09;567.38;;;528.55;;
7729;SDS011;3908;52.310;7.230;2023-06-26T09:57:56;576.90;;;537.25;;
7729;SDS011;3908;52.310;7.230;2023-06-26T10:00:43;552.10;;;513.53;;
7729;SDS011;3908;52.310;7.230;2023-06-26T10:03:30;503.35;;;466.10;;
7729;SDS011;3908;52.310;7.230;2023-06-26T10:06:19;499.38;;;463.35;;
7729;SDS011;3908;52.310;7.230;2023-06-26T10:09:06;490.83;;;456.23;;
7729;SDS011;3908;52.310;7.230;2023-06-26T10:11:54;373.63;;;346.13;;
7729;SDS011;3908;52.310;7.230;2023-06-26T10:14:41;258.85;;;241.65;;
7729;SDS011;3908;52.310;7.230;2023-06-26T10:17:30;255.55;;;238.82;;
7729;SDS011;3908;52.310;7.230;2023-06-26T10:20:18;226.50;;;212.18;;
7729;SDS011;3908;52.310;7.230;2023-06-26T10:23:07;256.45;;;240.20;;
7729;SDS011;3908;52.310;7.230;2023-06-26T10:25:54;253.00;;;236.60;;
7729;SDS011;3908;52.310;7.230;2023-06-26T10:28:42;367.67;;;340.92;;
7729;SDS011;3908;52.310;7.230;2023-06-26T10:31:30;394.23;;;363.55;;
7729;SDS011;3908;52.310;7.230;2023-06-26T10:34:17;396.20;;;367.55;;
7729;SDS011;3908;52.310;7.230;2023-06-26T10:37:04;350.73;;;329.42;;
7729;SDS011;3908;52.310;7.230;2023-06-26T10:39:53;365.10;;;342.70;;
7729;SDS011;3908;52.310;7.230;2023-06-26T10:42:40;348.98;;;327.73;;
7729;SDS011;3908;52.310;7.230;2023-06-26T10:45:27;202.82;;;193.13;;
7729;SDS011;3908;52.310;7.230;2023-06-26T10:48:15;213.48;;;202.48;;
7729;SDS011;3908;52.310;7.230;2023-06-26T10:51:11;253.55;;;239.43;;
7729;SDS011;3908;52.310;7.230;2023-06-26T10:54:00;168.90;;;160.30;;
7729;SDS011;3908;52.310;7.230;2023-06-26T10:56:49;225.05;;;213.93;;
7729;SDS011;3908;52.310;7.230;2023-06-26T10:59:38;255.75;;;240.27;;
7729;SDS011;3908;52.310;7.230;2023-06-26T11:02:25;342.55;;;321.95;;
7729;SDS011;3908;52.310;7.230;2023-06-26T11:05:12;353.60;;;333.92;;
7729;SDS011;3908;52.310;7.230;2023-06-26T11:08:09;364.63;;;343.13;;
7729;SDS011;3908;52.310;7.230;2023-06-26T11:11:00;269.98;;;256.30;;
7729;SDS011;3908;52.310;7.230;2023-06-26T11:13:48;250.73;;;237.40;;
7729;SDS011;3908;52.310;7.230;2023-06-26T11:16:35;271.95;;;257.70;;
7729;SDS011;3908;52.310;7.230;2023-06-26T11:19:21;268.55;;;254.50;;
7729;SDS011;3908;52.310;7.230;2023-06-26T11:22:08;272.00;;;257.65;;
7729;SDS011;3908;52.310;7.230;2023-06-26T11:24:55;302.15;;;285.52;;
7729;SDS011;3908;52.310;7.230;2023-06-26T11:27:45;215.93;;;204.52;;
7729;SDS011;3908;52.310;7.230;2023-06-26T11:30:33;187.40;;;178.18;;
7729;SDS011;3908;52.310;7.230;2023-06-26T11:33:26;213.77;;;203.13;;
7729;SDS011;3908;52.310;7.230;2023-06-26T11:36:13;219.60;;;208.50;;
7729;SDS011;3908;52.310;7.230;2023-06-26T11:39:00;279.23;;;264.88;;
7729;SDS011;3908;52.310;7.230;2023-06-26T11:41:48;314.50;;;296.95;;
7729;SDS011;3908;52.310;7.230;2023-06-26T11:44:39;358.15;;;337.95;;
7729;SDS011;3908;52.310;7.230;2023-06-26T11:47:27;346.02;;;326.33;;
7729;SDS011;3908;52.310;7.230;2023-06-26T11:50:14;238.90;;;226.10;;
7729;SDS011;3908;52.310;7.230;2023-06-26T11:53:01;273.77;;;258.75;;
7729;SDS011;3908;52.310;7.230;2023-06-26T11:55:50;310.10;;;292.80;;
7729;SDS011;3908;52.310;7.230;2023-06-26T12:01:39;376.27;;;354.58;;
7729;SDS011;3908;52.310;7.230;2023-06-26T12:04:28;431.98;;;406.55;;
7729;SDS011;3908;52.310;7.230;2023-06-26T12:07:15;388.50;;;366.10;;
7729;SDS011;3908;52.310;7.230;2023-06-26T12:10:03;305.75;;;289.10;;
7729;SDS011;3908;52.310;7.230;2023-06-26T12:12:51;291.75;;;276.73;;
7729;SDS011;3908;52.310;7.230;2023-06-26T12:15:38;276.50;;;262.17;;
7729;SDS011;3908;52.310;7.230;2023-06-26T12:18:25;250.23;;;237.68;;
7729;SDS011;3908;52.310;7.230;2023-06-26T12:24:16;185.10;;;176.52;;
7729;SDS011;3908;52.310;7.230;2023-06-26T12:27:06;216.98;;;207.00;;
7729;SDS011;3908;52.310;7.230;2023-06-26T12:29:54;269.48;;;255.80;;
7729;SDS011;3908;52.310;7.230;2023-06-26T12:32:43;226.57;;;215.70;;
7729;SDS011;3908;52.310;7.230;2023-06-26T12:35:32;212.85;;;202.52;;
7729;SDS011;3908;52.310;7.230;2023-06-26T12:38:19;226.93;;;215.65;;
7729;SDS011;3908;52.310;7.230;2023-06-26T12:41:12;190.88;;;181.85;;
7729;SDS011;3908;52.310;7.230;2023-06-26T12:44:00;186.77;;;178.05;;
7729;SDS011;3908;52.310;7.230;2023-06-26T12:46:47;353.10;;;334.08;;
7729;SDS011;3908;52.310;7.230;2023-06-26T12:49:35;365.65;;;345.77;;
7729;SDS011;3908;52.310;7.230;2023-06-26T12:52:22;351.85;;;333.02;;
7729;SDS011;3908;52.310;7.230;2023-06-26T12:55:09;350.35;;;331.90;;
7729;SDS011;3908;52.310;7.230;2023-06-26T12:57:57;334.90;;;317.23;;
7729;SDS011;3908;52.310;7.230;2023-06-26T13:00:44;372.23;;;351.95;;
7729;SDS011;3908;52.310;7.230;2023-06-26T13:03:30;406.75;;;383.45;;
7729;SDS011;3908;52.310;7.230;2023-06-26T13:06:17;419.88;;;395.20;;
7729;SDS011;3908;52.310;7.230;2023-06-26T13:09:04;411.55;;;387.52;;
7729;SDS011;3908;52.310;7.230;2023-06-26T13:11:51;400.73;;;377.92;;
7729;SDS011;3908;52.310;7.230;2023-06-26T13:14:39;410.63;;;387.70;;
7729;SDS011;3908;52.310;7.230;2023-06-26T13:17:26;413.67;;;390.23;;
7729;SDS011;3908;52.310;7.230;2023-06-26T13:20:13;385.45;;;363.38;;
7729;SDS011;3908;52.310;7.230;2023-06-26T13:23:00;410.20;;;387.08;;
7729;SDS011;3908;52.310;7.230;2023-06-26T13:25:46;393.33;;;371.33;;
7729;SDS011;3908;52.310;7.230;2023-06-26T13:28:33;403.45;;;381.05;;
7729;SDS011;3908;52.310;7.230;2023-06-26T13:31:21;341.17;;;322.00;;
7729;SDS011;3908;52.310;7.230;2023-06-26T13:34:08;368.13;;;347.52;;
7729;SDS011;3908;52.310;7.230;2023-06-26T13:36:55;414.17;;;390.98;;
7729;SDS011;3908;52.310;7.230;2023-06-26T13:39:42;432.83;;;408.15;;
7729;SDS011;3908;52.310;7.230;2023-06-26T13:42:34;323.27;;;304.30;;
7729;SDS011;3908;52.310;7.230;2023-06-26T13:45:21;297.42;;;279.77;;
7729;SDS011;3908;52.310;7.230;2023-06-26T13:48:10;288.00;;;271.30;;
7729;SDS011;3908;52.310;7.230;2023-06-26T13:50:58;361.00;;;339.50;;
7729;SDS011;3908;52.310;7.230;2023-06-26T13:53:45;398.50;;;374.98;;
7729;SDS011;3908;52.310;7.230;2023-06-26T13:56:32;356.75;;;335.35;;
7729;SDS011;3908;52.310;7.230;2023-06-26T13:59:18;300.17;;;282.52;;
7729;SDS011;3908;52.310;7.230;2023-06-26T14:02:05;226.32;;;213.05;;
7729;SDS011;3908;52.310;7.230;2023-06-26T14:04:53;237.85;;;224.68;;
7729;SDS011;3908;52.310;7.230;2023-06-26T14:07:40;309.60;;;291.30;;
7729;SDS011;3908;52.310;7.230;2023-06-26T14:10:29;328.90;;;309.58;;
7729;SDS011;3908;52.310;7.230;2023-06-26T14:13:15;233.07;;;220.10;;
7729;SDS011;3908;52.310;7.230;2023-06-26T14:16:02;85.72;;;81.55;;
7729;SDS011;3908;52.310;7.230;2023-06-26T14:18:50;86.40;;;82.18;;
7729;SDS011;3908;52.310;7.230;2023-06-26T14:21:38;175.73;;;166.05;;
7729;SDS011;3908;52.310;7.230;2023-06-26T14:24:25;242.82;;;228.88;;
7729;SDS011;3908;52.310;7.230;2023-06-26T14:27:12;224.52;;;211.80;;
7729;SDS011;3908;52.310;7.230;2023-06-26T14:29:59;142.82;;;135.93;;
7729;SDS011;3908;52.310;7.230;2023-06-26T14:32:46;212.40;;;201.13;;
7729;SDS011;3908;52.310;7.230;2023-06-26T14:35:32;228.10;;;215.45;;
7729;SDS011;3908;52.310;7.230;2023-06-26T14:38:22;225.07;;;212.65;;
7729;SDS011;3908;52.310;7.230;2023-06-26T14:41:09;189.13;;;179.05;;
7729;SDS011;3908;52.310;7.230;2023-06-26T14:43:55;182.07;;;172.20;;
7729;SDS011;3908;52.310;7.230;2023-06-26T14:46:42;106.47;;;100.97;;
7729;SDS011;3908;52.310;7.230;2023-06-26T14:49:29;123.60;;;117.07;;
7729;SDS011;3908;52.310;7.230;2023-06-26T14:52:16;172.60;;;163.32;;
7729;SDS011;3908;52.310;7.230;2023-06-26T14:55:05;175.65;;;165.80;;
7729;SDS011;3908;52.310;7.230;2023-06-26T14:57:52;209.27;;;197.50;;
7729;SDS011;3908;52.310;7.230;2023-06-26T15:00:38;279.52;;;262.85;;
7729;SDS011;3908;52.310;7.230;2023-06-26T15:03:25;284.92;;;268.13;;
7729;SDS011;3908;52.310;7.230;2023-06-26T15:06:12;202.63;;;191.35;;
7729;SDS011;3908;52.310;7.230;2023-06-26T15:08:59;163.18;;;154.00;;
7729;SDS011;3908;52.310;7.230;2023-06-26T15:11:48;141.63;;;133.98;;
7729;SDS011;3908;52.310;7.230;2023-06-26T15:14:35;54.67;;;51.72;;
7729;SDS011;3908;52.310;7.230;2023-06-26T15:17:22;53.30;;;50.40;;
7729;SDS011;3908;52.310;7.230;2023-06-26T15:20:09;55.97;;;53.10;;
7729;SDS011;3908;52.310;7.230;2023-06-26T15:22:55;61.92;;;58.50;;
7729;SDS011;3908;52.310;7.230;2023-06-26T15:25:43;59.53;;;56.28;;
7729;SDS011;3908;52.310;7.230;2023-06-26T15:28:31;152.23;;;144.50;;
7729;SDS011;3908;52.310;7.230;2023-06-26T15:31:18;156.57;;;149.02;;
7729;SDS011;3908;52.310;7.230;2023-06-26T15:34:05;195.63;;;185.20;;
7729;SDS011;3908;52.310;7.230;2023-06-26T15:36:52;162.25;;;154.80;;
7729;SDS011;3908;52.310;7.230;2023-06-26T15:39:38;273.83;;;259.95;;
7729;SDS011;3908;52.310;7.230;2023-06-26T15:42:26;313.33;;;298.52;;
7729;SDS011;3908;52.310;7.230;2023-06-26T15:45:14;297.88;;;283.95;;
7729;SDS011;3908;52.310;7.230;2023-06-26T15:48:03;253.10;;;241.00;;
7729;SDS011;3908;52.310;7.230;2023-06-26T15:50:50;292.05;;;278.40;;
7729;SDS011;3908;52.310;7.230;2023-06-26T15:53:37;250.20;;;238.73;;
7729;SDS011;3908;52.310;7.230;2023-06-26T15:56:24;175.43;;;167.30;;
7729;SDS011;3908;52.310;7.230;2023-06-26T15:59:11;137.45;;;131.05;;
7729;SDS011;3908;52.310;7.230;2023-06-26T16:01:59;167.23;;;159.45;;
7729;SDS011;3908;52.310;7.230;2023-06-26T16:04:46;156.38;;;149.40;;
7729;SDS011;3908;52.310;7.230;2023-06-26T16:07:33;82.45;;;78.25;;
7729;SDS011;3908;52.310;7.230;2023-06-26T16:10:20;136.10;;;129.85;;
7729;SDS011;3908;52.310;7.230;2023-06-26T16:13:07;171.50;;;163.73;;
7729;SDS011;3908;52.310;7.230;2023-06-26T16:15:54;155.60;;;148.50;;
7729;SDS011;3908;52.310;7.230;2023-06-26T16:18:42;223.15;;;212.77;;
7729;SDS011;3908;52.310;7.230;2023-06-26T16:21:29;199.20;;;190.05;;
7729;SDS011;3908;52.310;7.230;2023-06-26T16:24:15;299.38;;;285.38;;